createdAt,value
2017-11-30T00:02:19.328Z,9.37
2017-11-30T00:04:49.980Z,9.00
2017-11-30T00:07:20.365Z,9.00
2017-11-30T00:09:52.093Z,9.63
2017-11-30T00:12:23.285Z,11.03
2017-11-30T00:14:53.678Z,10.20
2017-11-30T00:17:24.869Z,8.70
2017-11-30T00:19:55.264Z,11.00
2017-11-30T00:22:26.946Z,8.17
2017-11-30T00:24:57.317Z,6.90
2017-11-30T00:27:27.723Z,6.90
2017-11-30T00:29:58.112Z,6.40
2017-11-30T00:32:28.544Z,5.47
2017-11-30T00:34:58.920Z,7.20
2017-11-30T00:37:29.337Z,5.80
2017-11-30T00:40:00.100Z,5.50
2017-11-30T00:42:41.908Z,5.80
2017-11-30T00:45:13.075Z,5.63
2017-11-30T00:47:43.455Z,4.97
2017-11-30T00:50:13.817Z,4.10
2017-11-30T00:52:44.552Z,3.73
2017-11-30T00:55:14.937Z,3.30
2017-11-30T00:57:45.342Z,4.80
2017-11-30T01:00:15.787Z,3.60
2017-11-30T01:02:46.136Z,3.00
2017-11-30T01:05:17.596Z,2.67
2017-11-30T01:07:47.982Z,2.40
2017-11-30T01:10:18.675Z,2.50
2017-11-30T01:12:49.086Z,1.93
2017-11-30T01:15:19.495Z,1.20
2017-11-30T01:17:50.685Z,1.37
2017-11-30T01:20:21.135Z,1.40
2017-11-30T01:22:51.933Z,1.00
2017-11-30T01:25:22.331Z,1.67
2017-11-30T01:27:53.731Z,1.47
2017-11-30T01:30:24.126Z,2.50
2017-11-30T01:32:54.539Z,2.00
2017-11-30T01:35:24.970Z,1.97
2017-11-30T01:37:55.349Z,1.80
2017-11-30T01:40:26.256Z,2.17
2017-11-30T01:42:56.638Z,2.60
2017-11-30T01:45:27.796Z,3.00
2017-11-30T01:47:58.959Z,3.07
2017-11-30T01:50:29.382Z,2.30
2017-11-30T01:53:00.150Z,3.93
2017-11-30T01:55:30.548Z,4.30
2017-11-30T01:58:01.338Z,3.50
2017-11-30T02:00:31.747Z,3.63
2017-11-30T02:03:02.163Z,2.73
2017-11-30T02:05:32.556Z,3.63
2017-11-30T02:08:02.957Z,3.03
2017-11-30T02:10:34.561Z,2.40
2017-11-30T02:13:04.982Z,2.90
2017-11-30T02:15:35.360Z,3.03
2017-11-30T02:18:06.529Z,2.53
2017-11-30T02:20:36.923Z,3.30
2017-11-30T02:23:08.514Z,2.70
2017-11-30T02:25:38.902Z,3.23
2017-11-30T02:28:10.433Z,3.40
2017-11-30T02:30:40.828Z,2.67
2017-11-30T02:33:11.261Z,2.30
2017-11-30T02:35:41.704Z,2.40
2017-11-30T02:38:12.239Z,1.97
2017-11-30T02:40:43.254Z,1.80
2017-11-30T02:43:13.967Z,1.80
2017-11-30T02:45:44.520Z,2.10
2017-11-30T02:48:15.066Z,2.23
2017-11-30T02:50:45.470Z,2.40
2017-11-30T02:53:16.379Z,2.30
2017-11-30T02:55:47.519Z,2.00
2017-11-30T02:58:19.253Z,2.20
2017-11-30T03:00:49.647Z,3.40
2017-11-30T03:03:20.072Z,3.53
2017-11-30T03:05:50.460Z,3.23
2017-11-30T03:08:20.848Z,4.30
2017-11-30T03:10:51.647Z,3.67
2017-11-30T03:13:22.065Z,3.57
2017-11-30T03:15:52.585Z,3.57
2017-11-30T03:18:22.990Z,3.27
2017-11-30T03:20:53.535Z,2.10
2017-11-30T03:23:24.013Z,2.43
2017-11-30T03:25:54.506Z,2.60
2017-11-30T03:28:25.383Z,2.50
2017-11-30T03:30:55.791Z,2.50
2017-11-30T03:33:26.226Z,2.30
2017-11-30T03:35:58.957Z,3.40
2017-11-30T03:38:29.366Z,3.20
2017-11-30T03:41:00.981Z,3.60
2017-11-30T03:43:31.437Z,3.57
2017-11-30T03:46:02.264Z,3.10
2017-11-30T03:48:32.676Z,3.30
2017-11-30T03:51:03.110Z,3.90
2017-11-30T03:53:33.525Z,3.13
2017-11-30T03:56:03.927Z,2.83
2017-11-30T03:58:34.794Z,3.80
2017-11-30T04:01:05.267Z,3.37
2017-11-30T04:03:35.686Z,3.30
2017-11-30T04:06:06.855Z,4.20
2017-11-30T04:08:37.250Z,4.57
2017-11-30T04:11:08.849Z,4.57
2017-11-30T04:13:39.258Z,4.50
2017-11-30T04:16:09.976Z,4.60
2017-11-30T04:18:40.380Z,4.00
2017-11-30T04:21:10.775Z,4.00
2017-11-30T04:23:41.189Z,4.60
2017-11-30T04:26:11.571Z,4.40
2017-11-30T04:28:43.140Z,5.13
2017-11-30T04:31:13.549Z,5.30
2017-11-30T04:33:45.056Z,6.90
2017-11-30T04:36:15.455Z,7.87
2017-11-30T04:38:45.885Z,8.07
2017-11-30T04:41:16.552Z,8.67
2017-11-30T04:43:46.967Z,8.20
2017-11-30T04:46:17.929Z,7.90
2017-11-30T04:48:48.573Z,8.07
2017-11-30T04:51:19.802Z,8.50
2017-11-30T04:53:51.031Z,8.60
2017-11-30T04:56:21.454Z,8.47
2017-11-30T04:58:52.574Z,7.60
2017-11-30T05:01:22.986Z,8.77
2017-11-30T05:03:53.564Z,7.33
2017-11-30T05:06:24.106Z,7.30
2017-11-30T05:08:54.551Z,7.60
2017-11-30T05:11:25.743Z,8.47
2017-11-30T05:13:56.146Z,7.03
2017-11-30T05:16:26.923Z,6.93
2017-11-30T05:18:57.329Z,5.47
2017-11-30T05:21:27.696Z,6.07
2017-11-30T05:23:58.109Z,4.90
2017-11-30T05:26:28.543Z,5.23
2017-11-30T05:28:59.277Z,4.23
2017-11-30T05:31:29.741Z,4.40
2017-11-30T05:34:00.414Z,5.13
2017-11-30T05:36:30.815Z,4.50
2017-11-30T05:39:01.229Z,3.80
2017-11-30T05:41:31.659Z,4.70
2017-11-30T05:44:02.064Z,4.20
2017-11-30T05:46:33.641Z,4.10
2017-11-30T05:49:04.033Z,4.73
2017-11-30T05:51:35.227Z,4.10
2017-11-30T05:54:05.616Z,3.40
2017-11-30T05:56:36.747Z,4.10
2017-11-30T05:59:08.467Z,4.00
2017-11-30T06:01:38.850Z,3.90
2017-11-30T06:04:09.720Z,4.70
2017-11-30T06:06:40.099Z,4.60
2017-11-30T06:09:11.285Z,4.47
2017-11-30T06:11:41.646Z,4.77
2017-11-30T06:14:12.066Z,5.00
2017-11-30T06:16:42.810Z,4.80
2017-11-30T06:19:13.967Z,4.90
2017-11-30T06:21:45.128Z,4.90
2017-11-30T06:24:15.569Z,4.20
2017-11-30T06:26:45.955Z,4.17
2017-11-30T06:29:17.113Z,4.40
2017-11-30T06:31:48.292Z,4.37
2017-11-30T06:34:19.285Z,3.47
2017-11-30T06:36:50.466Z,3.80
2017-11-30T06:39:20.880Z,3.87
2017-11-30T06:41:51.527Z,3.37
2017-11-30T06:44:21.998Z,3.07
2017-11-30T06:46:52.828Z,3.50
2017-11-30T06:49:23.286Z,3.20
2017-11-30T06:51:54.749Z,3.07
2017-11-30T06:54:25.904Z,2.90
2017-11-30T06:56:56.509Z,3.10
2017-11-30T06:59:27.655Z,2.33
2017-11-30T07:01:58.829Z,2.43
2017-11-30T07:04:29.611Z,1.63
2017-11-30T07:06:59.995Z,2.03
2017-11-30T07:09:30.436Z,2.10
2017-11-30T07:12:00.917Z,2.10
2017-11-30T07:14:32.156Z,1.90
2017-11-30T07:17:03.715Z,1.57
2017-11-30T07:19:34.904Z,1.67
2017-11-30T07:22:05.690Z,1.73
2017-11-30T07:24:36.857Z,1.73
2017-11-30T07:27:07.422Z,1.50
2017-11-30T07:29:37.815Z,1.90
2017-11-30T07:32:08.182Z,1.60
2017-11-30T07:34:38.892Z,1.17
2017-11-30T07:37:09.293Z,1.20
2017-11-30T07:39:39.683Z,1.07
2017-11-30T07:42:10.096Z,1.30
2017-11-30T07:44:40.503Z,1.20
2017-11-30T07:47:11.151Z,1.17
2017-11-30T07:49:41.572Z,1.10
2017-11-30T07:52:12.394Z,1.20
2017-11-30T07:54:42.775Z,1.40
2017-11-30T07:57:13.935Z,1.13
2017-11-30T07:59:44.355Z,1.13
2017-11-30T08:02:14.710Z,1.20
2017-11-30T08:04:45.516Z,1.30
2017-11-30T08:07:16.721Z,1.10
2017-11-30T08:09:47.174Z,0.87
2017-11-30T08:12:18.353Z,0.90
2017-11-30T08:14:48.867Z,0.73
2017-11-30T08:17:19.728Z,0.70
2017-11-30T08:19:50.155Z,0.70
2017-11-30T08:22:20.998Z,0.87
2017-11-30T08:24:51.602Z,0.70
2017-11-30T08:27:22.062Z,0.93
2017-11-30T08:29:52.477Z,0.83
2017-11-30T08:32:22.875Z,0.83
2017-11-30T08:34:53.668Z,1.23
2017-11-30T08:37:24.525Z,1.20
2017-11-30T08:39:56.191Z,1.47
2017-11-30T08:42:27.345Z,1.37
2017-11-30T08:44:57.736Z,1.40
2017-11-30T08:47:28.293Z,1.40
2017-11-30T08:49:59.563Z,1.53
2017-11-30T08:52:30.070Z,1.33
2017-11-30T08:55:01.261Z,1.13
2017-11-30T08:57:31.649Z,1.60
2017-11-30T09:00:02.115Z,1.20
2017-11-30T09:02:32.608Z,1.60
2017-11-30T09:05:03.054Z,1.37
2017-11-30T09:07:33.501Z,1.20
2017-11-30T09:10:04.315Z,1.67
2017-11-30T09:12:34.822Z,0.90
2017-11-30T09:15:05.281Z,0.93
2017-11-30T09:17:35.730Z,1.50
2017-11-30T09:20:06.152Z,1.33
2017-11-30T09:22:36.966Z,1.43
2017-11-30T09:25:07.391Z,1.53
2017-11-30T09:27:37.920Z,1.33
2017-11-30T09:30:08.339Z,1.53
2017-11-30T09:32:38.774Z,1.40
2017-11-30T09:35:09.203Z,1.40
2017-11-30T09:37:39.660Z,1.60
2017-11-30T09:40:10.474Z,1.63
2017-11-30T09:42:40.873Z,1.70
2017-11-30T09:45:11.295Z,1.23
2017-11-30T09:47:41.681Z,1.50
2017-11-30T09:50:12.099Z,1.20
2017-11-30T09:52:42.621Z,1.30
2017-11-30T09:55:13.153Z,1.10
2017-11-30T09:57:44.147Z,1.50
2017-11-30T10:00:15.564Z,1.20
2017-11-30T10:02:46.004Z,1.10
2017-11-30T10:05:16.757Z,0.70
2017-11-30T10:07:47.145Z,0.90
2017-11-30T10:10:18.253Z,0.80
2017-11-30T10:12:48.713Z,1.03
2017-11-30T10:15:20.258Z,1.23
2017-11-30T10:17:50.669Z,0.80
2017-11-30T10:20:21.353Z,1.10
2017-11-30T10:22:51.913Z,1.10
2017-11-30T10:25:22.571Z,0.90
2017-11-30T10:27:53.028Z,1.10
2017-11-30T10:30:24.315Z,1.30
2017-11-30T10:32:54.696Z,1.30
2017-11-30T10:35:25.870Z,1.10
2017-11-30T10:37:56.248Z,1.10
2017-11-30T10:40:27.242Z,0.90
2017-11-30T10:42:57.913Z,0.90
2017-11-30T10:45:28.311Z,1.10
2017-11-30T10:47:58.697Z,1.10
2017-11-30T10:50:29.862Z,1.27
2017-11-30T10:53:00.221Z,1.13
2017-11-30T10:55:30.626Z,1.00
2017-11-30T10:58:01.342Z,0.90
2017-11-30T11:00:31.743Z,1.23
2017-11-30T11:03:02.894Z,1.20
2017-11-30T11:05:34.096Z,1.53
2017-11-30T11:08:04.473Z,0.70
2017-11-30T11:10:35.031Z,1.63
2017-11-30T11:13:05.451Z,1.77
2017-11-30T11:15:35.965Z,1.73
2017-11-30T11:18:06.361Z,2.50
2017-11-30T11:20:37.617Z,1.80
2017-11-30T11:23:08.834Z,2.17
2017-11-30T11:25:39.617Z,2.00
2017-11-30T11:28:10.475Z,2.43
2017-11-30T11:30:41.158Z,2.13
2017-11-30T11:33:13.837Z,3.03
2017-11-30T11:35:45.257Z,3.10
2017-11-30T11:38:15.626Z,2.97
2017-11-30T11:40:47.095Z,2.20
2017-11-30T11:43:17.471Z,2.80
2017-11-30T11:45:48.167Z,2.43
2017-11-30T11:48:18.653Z,2.03
2017-11-30T11:50:49.992Z,1.43
2017-11-30T11:53:21.140Z,1.17
2017-11-30T11:55:52.363Z,1.47
2017-11-30T11:58:23.159Z,1.20
2017-11-30T12:00:53.600Z,1.23
2017-11-30T12:03:24.811Z,1.20
2017-11-30T12:05:55.346Z,1.60
2017-11-30T12:08:25.775Z,1.17
2017-11-30T12:10:56.213Z,1.60
2017-11-30T12:13:26.686Z,1.53
2017-11-30T12:15:57.539Z,1.90
2017-11-30T12:18:28.690Z,1.90
2017-11-30T12:20:59.113Z,2.43
2017-11-30T12:23:30.267Z,3.30
2017-11-30T12:26:01.517Z,3.80
2017-11-30T12:28:31.970Z,2.70
2017-11-30T12:31:02.397Z,4.10
2017-11-30T12:33:33.132Z,3.50
2017-11-30T12:36:03.640Z,4.20
2017-11-30T12:38:34.056Z,3.83
2017-11-30T12:41:05.319Z,3.80
2017-11-30T12:43:35.771Z,3.97
2017-11-30T12:46:06.578Z,4.83
2017-11-30T12:48:36.969Z,4.30
2017-11-30T12:51:07.677Z,4.03
2017-11-30T12:53:38.051Z,4.40
2017-11-30T12:56:09.398Z,3.43
2017-11-30T12:58:41.084Z,3.90
2017-11-30T13:01:11.557Z,4.13
2017-11-30T13:03:42.268Z,3.13
2017-11-30T13:06:12.936Z,2.80
2017-11-30T13:08:45.355Z,2.00
2017-11-30T13:11:15.968Z,1.70
2017-11-30T13:13:46.647Z,2.10
2017-11-30T13:16:17.380Z,2.57
2017-11-30T13:18:47.791Z,1.50
2017-11-30T13:21:18.280Z,1.27
2017-11-30T13:23:48.671Z,1.30
2017-11-30T13:26:19.279Z,1.20
2017-11-30T13:28:50.001Z,1.07
2017-11-30T13:31:20.552Z,0.80
2017-11-30T13:33:51.259Z,0.90
2017-11-30T13:36:21.804Z,1.20
2017-11-30T13:38:52.228Z,1.10
2017-11-30T13:41:22.797Z,1.00
2017-11-30T13:43:53.954Z,1.10
2017-11-30T13:46:25.885Z,0.90
2017-11-30T13:48:56.287Z,0.80
2017-11-30T13:51:26.834Z,1.10
2017-11-30T13:53:57.265Z,1.33
2017-11-30T13:56:28.602Z,0.97
2017-11-30T13:58:59.271Z,0.97
2017-11-30T14:01:30.616Z,0.97
2017-11-30T14:04:01.774Z,0.80
2017-11-30T14:06:33.098Z,0.90
2017-11-30T14:09:04.335Z,0.97
2017-11-30T14:11:34.835Z,1.50
2017-11-30T14:14:05.216Z,0.90
2017-11-30T14:16:36.777Z,1.27
2017-11-30T14:19:07.129Z,1.10
2017-11-30T14:21:37.911Z,0.90
2017-11-30T14:24:08.260Z,0.70
2017-11-30T14:26:38.722Z,1.43
2017-11-30T14:29:10.280Z,0.90
2017-11-30T14:31:40.926Z,0.80
2017-11-30T14:34:11.700Z,1.30
2017-11-30T14:36:42.856Z,1.10
2017-11-30T14:39:13.258Z,1.80
2017-11-30T14:41:50.866Z,2.23
2017-11-30T14:44:21.304Z,1.90
2017-11-30T14:46:52.221Z,2.80
2017-11-30T14:49:23.438Z,3.27
2017-11-30T14:51:54.297Z,5.47
2017-11-30T14:54:25.514Z,5.33
2017-11-30T14:56:56.159Z,7.47
2017-11-30T14:59:27.673Z,7.67
2017-11-30T15:01:58.173Z,6.93
2017-11-30T15:04:29.137Z,7.00
2017-11-30T15:06:59.566Z,9.00
2017-11-30T15:09:29.974Z,8.50
2017-11-30T15:12:00.427Z,8.87
2017-11-30T15:14:30.830Z,10.00
2017-11-30T15:17:01.249Z,8.03
2017-11-30T15:19:31.660Z,8.13
2017-11-30T15:22:03.376Z,8.10
2017-11-30T15:24:33.812Z,8.97
2017-11-30T15:27:04.391Z,7.70
2017-11-30T15:29:34.887Z,8.10
2017-11-30T15:32:05.377Z,9.00
2017-11-30T15:34:36.364Z,8.17
2017-11-30T15:37:07.656Z,9.57
2017-11-30T15:39:38.447Z,9.83
2017-11-30T15:42:09.624Z,9.43
2017-11-30T15:44:40.220Z,10.40
2017-11-30T15:47:11.397Z,9.40
2017-11-30T15:49:41.879Z,8.20
2017-11-30T15:52:12.858Z,9.07
2017-11-30T15:54:43.256Z,8.30
2017-11-30T15:57:14.529Z,9.07
2017-11-30T15:59:44.914Z,8.20
2017-11-30T16:02:15.484Z,10.57
2017-11-30T16:04:46.138Z,9.10
2017-11-30T16:07:16.516Z,9.43
2017-11-30T16:09:48.184Z,10.40
2017-11-30T16:12:19.421Z,9.07
2017-11-30T16:14:50.588Z,8.77
2017-11-30T16:17:21.093Z,9.43
2017-11-30T16:19:52.249Z,9.17
2017-11-30T16:22:23.044Z,9.20
2017-11-30T16:24:53.414Z,11.10
2017-11-30T16:27:24.009Z,10.93
2017-11-30T16:29:54.418Z,10.40
2017-11-30T16:32:24.845Z,11.10
2017-11-30T16:34:55.311Z,10.47
2017-11-30T16:37:26.731Z,12.07
2017-11-30T16:39:57.570Z,12.63
2017-11-30T16:42:27.982Z,12.80
2017-11-30T16:44:58.365Z,12.70
2017-11-30T16:47:28.744Z,12.50
2017-11-30T16:49:59.299Z,12.60
2017-11-30T16:52:29.968Z,11.60
2017-11-30T16:55:00.510Z,10.97
2017-11-30T16:57:31.291Z,12.03
2017-11-30T17:00:02.451Z,12.40
2017-11-30T17:02:33.990Z,11.83
2017-11-30T17:05:05.134Z,11.67
2017-11-30T17:07:36.354Z,11.87
2017-11-30T17:10:07.576Z,13.37
2017-11-30T17:12:37.956Z,13.10
2017-11-30T17:15:09.309Z,14.30
2017-11-30T17:17:40.486Z,13.13
2017-11-30T17:20:10.918Z,14.00
2017-11-30T17:22:41.366Z,12.90
2017-11-30T17:25:11.767Z,12.07
2017-11-30T17:27:42.724Z,13.40
2017-11-30T17:30:13.098Z,11.63
2017-11-30T17:32:44.270Z,11.80
2017-11-30T17:35:14.682Z,12.50
2017-11-30T17:37:45.097Z,11.80
2017-11-30T17:40:15.517Z,11.90
2017-11-30T17:42:46.681Z,11.70
2017-11-30T17:45:17.514Z,11.93
2017-11-30T17:47:50.366Z,11.73
2017-11-30T17:50:21.521Z,10.43
2017-11-30T17:52:52.690Z,11.40
2017-11-30T17:55:23.090Z,11.07
2017-11-30T17:57:54.668Z,12.37
2017-11-30T18:00:25.100Z,12.73
2017-11-30T18:02:55.504Z,14.17
2017-11-30T18:05:26.646Z,14.10
2017-11-30T18:07:57.814Z,12.90
2017-11-30T18:10:28.289Z,15.47
2017-11-30T18:12:58.690Z,13.83
2017-11-30T18:15:29.438Z,13.87
2017-11-30T18:17:59.805Z,12.70
2017-11-30T18:20:30.232Z,13.17
2017-11-30T18:23:00.632Z,13.57
2017-11-30T18:25:30.991Z,14.30
2017-11-30T18:28:01.681Z,14.33
2017-11-30T18:30:32.054Z,14.50
2017-11-30T18:33:02.926Z,14.63
2017-11-30T18:35:33.311Z,14.73
2017-11-30T18:38:03.996Z,13.93
2017-11-30T18:40:34.385Z,14.93
2017-11-30T18:43:04.773Z,13.53
2017-11-30T18:45:36.358Z,15.77
2017-11-30T18:48:06.758Z,15.63
2017-11-30T18:50:37.938Z,12.90
2017-11-30T18:53:08.352Z,13.13
2017-11-30T18:55:38.737Z,12.80
2017-11-30T18:58:09.541Z,13.47
2017-11-30T19:00:39.939Z,12.40
2017-11-30T19:03:10.730Z,13.23
2017-11-30T19:05:41.103Z,13.60
2017-11-30T19:08:11.498Z,13.47
2017-11-30T19:10:42.736Z,14.40
2017-11-30T19:13:13.142Z,13.00
2017-11-30T19:15:44.106Z,14.40
2017-11-30T19:18:15.302Z,12.70
2017-11-30T19:20:45.751Z,12.60
2017-11-30T19:23:16.162Z,12.47
2017-11-30T19:25:46.591Z,10.60
2017-11-30T19:28:16.966Z,11.10
2017-11-30T19:30:48.118Z,11.53
2017-11-30T19:33:19.515Z,10.63
2017-11-30T19:35:49.980Z,11.10
2017-11-30T19:38:21.187Z,12.03
2017-11-30T19:40:51.572Z,12.73
2017-11-30T19:43:22.089Z,13.07
2017-11-30T19:45:53.662Z,12.93
2017-11-30T19:48:24.152Z,12.40
2017-11-30T19:50:55.420Z,12.00
2017-11-30T19:53:25.853Z,13.00
2017-11-30T19:55:56.258Z,13.70
2017-11-30T19:58:27.464Z,14.17
2017-11-30T20:00:57.815Z,13.03
2017-11-30T20:03:28.646Z,12.87
2017-11-30T20:05:59.068Z,15.43
2017-11-30T20:08:29.429Z,14.37
2017-11-30T20:11:00.586Z,16.13
2017-11-30T20:13:31.012Z,15.63
2017-11-30T20:16:01.766Z,15.10
2017-11-30T20:18:32.155Z,14.40
2017-11-30T20:21:04.106Z,17.00
2017-11-30T20:23:35.280Z,14.57
2017-11-30T20:26:05.675Z,13.17
2017-11-30T20:28:36.896Z,13.90
2017-11-30T20:31:07.292Z,15.73
2017-11-30T20:33:38.319Z,15.03
2017-11-30T20:36:08.701Z,18.17
2017-11-30T20:38:39.104Z,17.37
2017-11-30T20:41:09.513Z,18.30
2017-11-30T20:43:39.936Z,19.90
2017-11-30T20:46:10.705Z,17.30
2017-11-30T20:48:41.125Z,18.10
2017-11-30T20:51:11.927Z,13.20
2017-11-30T20:53:42.402Z,12.60
2017-11-30T20:56:12.794Z,12.73
2017-11-30T20:58:43.232Z,12.47
2017-11-30T21:01:13.626Z,12.10
2017-11-30T21:03:44.353Z,11.10
2017-11-30T21:06:14.740Z,11.27
2017-11-30T21:08:45.160Z,10.20
2017-11-30T21:11:15.540Z,8.77
2017-11-30T21:13:45.956Z,8.20
2017-11-30T21:16:16.612Z,8.40
2017-11-30T21:18:47.026Z,8.60
2017-11-30T21:21:17.898Z,8.07
2017-11-30T21:23:48.282Z,8.60
2017-11-30T21:26:18.671Z,8.73
2017-11-30T21:28:49.875Z,9.03
2017-11-30T21:31:20.248Z,10.43
2017-11-30T21:33:51.593Z,11.77
2017-11-30T21:36:23.845Z,13.07
2017-11-30T21:38:54.594Z,13.50
2017-11-30T21:41:25.853Z,13.13
2017-11-30T21:43:56.372Z,13.90
2017-11-30T21:46:27.542Z,12.43
2017-11-30T21:48:57.922Z,12.67
2017-11-30T21:51:28.857Z,14.77
2017-11-30T21:53:59.254Z,14.30
2017-11-30T21:56:29.635Z,12.77
2017-11-30T21:59:04.266Z,13.33
2017-11-30T22:01:35.428Z,13.93
2017-11-30T22:04:18.284Z,12.10
2017-11-30T22:06:48.653Z,13.87
2017-11-30T22:09:19.803Z,12.80
2017-11-30T22:11:50.983Z,13.70
2017-11-30T22:14:29.920Z,14.40
2017-11-30T22:17:00.874Z,14.50
2017-11-30T22:19:31.262Z,13.37
2017-11-30T22:22:01.778Z,13.60
2017-11-30T22:24:32.221Z,11.83
2017-11-30T22:27:02.604Z,14.50
2017-11-30T22:29:33.772Z,16.20
2017-11-30T22:32:04.139Z,14.40
2017-11-30T22:34:35.116Z,15.20
2017-11-30T22:37:07.577Z,13.33
2017-11-30T22:39:38.174Z,13.03
2017-11-30T22:42:08.588Z,9.87
2017-11-30T22:44:39.462Z,10.97
2017-11-30T22:47:10.251Z,10.37
2017-11-30T22:49:40.689Z,10.73
2017-11-30T22:52:11.430Z,9.80
2017-11-30T22:54:41.890Z,9.43
2017-11-30T22:57:12.324Z,10.17
2017-11-30T22:59:43.501Z,10.67
2017-11-30T23:02:14.016Z,10.37
2017-11-30T23:04:45.741Z,10.13
2017-11-30T23:07:16.126Z,11.53
2017-11-30T23:09:46.548Z,10.80
2017-11-30T23:12:16.972Z,9.20
2017-11-30T23:14:47.370Z,9.33
2017-11-30T23:17:19.116Z,10.10
2017-11-30T23:19:50.290Z,9.60
2017-11-30T23:22:21.036Z,9.63
2017-11-30T23:24:51.437Z,10.53
2017-11-30T23:27:22.601Z,10.17
2017-11-30T23:29:52.997Z,10.70
2017-11-30T23:32:24.211Z,10.67
2017-11-30T23:34:55.032Z,9.73
2017-11-30T23:37:25.446Z,8.90
2017-11-30T23:39:55.874Z,7.37
2017-11-30T23:42:26.313Z,8.50
2017-11-30T23:44:56.815Z,7.37
2017-11-30T23:47:27.213Z,7.47
2017-11-30T23:49:58.405Z,6.87
2017-11-30T23:52:29.146Z,7.07
2017-11-30T23:54:59.542Z,7.33
2017-11-30T23:57:29.938Z,6.90
